Terminal Aerodrome Forecast
Issued by NWS

Home | Current Version | Previous Version | Text Only | Print | Product List | Glossary On
Versions: 1 2 3 4 5 6 7 8 9 10 11 12 13 14 15 16 17 18 19
000
FTUS43 KAPX 232326
TAFPLN
TAF
KPLN 232326Z 2400/2424 25009G19KT P6SM SCT250
     FM240200 25004KT P6SM SCT250
     FM241900 21011KT P6SM SCT070 BKN120
     FM242300 15008KT P6SM -SHRA BKN060=

USA.gov is the U.S. government's official web portal to all federal, state and local government web resources and services.